createdAt,value
2017-07-23T00:01:56.710Z,99.90
2017-07-23T00:04:24.198Z,99.90
2017-07-23T00:06:51.675Z,99.60
2017-07-23T00:09:19.158Z,99.70
2017-07-23T00:11:46.630Z,99.70
2017-07-23T00:14:14.127Z,99.60
2017-07-23T00:16:41.610Z,99.60
2017-07-23T00:19:09.135Z,99.70
2017-07-23T00:21:36.598Z,99.70
2017-07-23T00:24:04.089Z,99.90
2017-07-23T00:26:31.563Z,99.90
2017-07-23T00:28:59.032Z,99.90
2017-07-23T00:31:26.527Z,99.80
2017-07-23T00:33:54.005Z,99.90
2017-07-23T00:36:23.103Z,99.90
2017-07-23T00:38:50.578Z,99.90
2017-07-23T00:41:18.071Z,99.90
2017-07-23T00:43:45.546Z,99.90
2017-07-23T00:46:13.045Z,99.90
2017-07-23T00:48:40.514Z,99.90
2017-07-23T00:51:08.770Z,99.90
2017-07-23T00:53:36.242Z,99.90
2017-07-23T00:56:03.730Z,99.70
2017-07-23T00:58:31.206Z,99.70
2017-07-23T01:00:58.699Z,99.60
2017-07-23T01:03:26.170Z,99.60
2017-07-23T01:05:53.689Z,99.50
2017-07-23T01:08:21.169Z,98.90
2017-07-23T01:10:48.642Z,99.00
2017-07-23T01:13:16.122Z,99.10
2017-07-23T01:15:43.599Z,98.70
2017-07-23T01:18:11.085Z,98.70
2017-07-23T01:20:38.562Z,98.60
2017-07-23T01:23:06.054Z,98.40
2017-07-23T01:25:33.531Z,98.10
2017-07-23T01:28:01.023Z,98.10
2017-07-23T01:30:28.495Z,97.80
2017-07-23T01:32:55.973Z,98.10
2017-07-23T01:35:23.445Z,98.10
2017-07-23T01:37:50.947Z,98.30
2017-07-23T01:40:18.427Z,98.30
2017-07-23T01:42:46.016Z,98.00
2017-07-23T01:45:13.486Z,98.10
2017-07-23T01:47:40.974Z,97.80
2017-07-23T01:50:08.446Z,97.90
2017-07-23T01:52:36.023Z,97.70
2017-07-23T01:55:03.495Z,97.90
2017-07-23T01:57:30.990Z,97.80
2017-07-23T01:59:58.466Z,98.00
2017-07-23T02:02:26.002Z,97.70
2017-07-23T02:04:53.486Z,97.80
2017-07-23T02:07:20.967Z,97.90
2017-07-23T02:09:48.472Z,97.80
2017-07-23T02:12:15.943Z,97.60
2017-07-23T02:14:43.438Z,97.70
2017-07-23T02:17:10.905Z,97.50
2017-07-23T02:19:38.402Z,97.60
2017-07-23T02:22:05.874Z,97.80
2017-07-23T02:24:33.371Z,97.80
2017-07-23T02:27:00.838Z,97.80
2017-07-23T02:29:28.334Z,97.70
2017-07-23T02:31:55.807Z,96.60
2017-07-23T02:34:23.301Z,96.30
2017-07-23T02:36:50.786Z,96.00
2017-07-23T02:39:18.287Z,95.50
2017-07-23T02:41:45.760Z,95.00
2017-07-23T02:44:13.235Z,94.90
2017-07-23T02:46:40.721Z,94.60
2017-07-23T02:49:08.190Z,94.30
2017-07-23T02:51:35.686Z,94.20
2017-07-23T02:54:03.159Z,93.90
2017-07-23T02:56:30.652Z,93.90
2017-07-23T02:58:58.894Z,93.80
2017-07-23T03:01:26.430Z,94.00
2017-07-23T03:03:53.901Z,94.10
2017-07-23T03:06:22.166Z,94.30
2017-07-23T03:08:49.648Z,94.30
2017-07-23T03:11:17.140Z,94.30
2017-07-23T03:13:44.602Z,94.50
2017-07-23T03:16:12.086Z,94.00
2017-07-23T03:18:40.342Z,94.20
2017-07-23T03:21:07.827Z,94.20
2017-07-23T03:23:35.294Z,94.20
2017-07-23T03:26:02.848Z,94.20
2017-07-23T03:28:30.308Z,93.80
2017-07-23T03:30:57.820Z,93.80
2017-07-23T03:33:25.293Z,93.70
2017-07-23T03:35:52.769Z,93.60
2017-07-23T03:38:20.253Z,93.40
2017-07-23T03:40:47.722Z,93.50
2017-07-23T03:43:15.217Z,93.50
2017-07-23T03:45:42.691Z,93.60
2017-07-23T03:48:10.202Z,93.70
2017-07-23T03:50:37.675Z,93.70
2017-07-23T03:53:05.161Z,93.60
2017-07-23T03:55:32.641Z,93.60
2017-07-23T03:58:00.143Z,93.60
2017-07-23T04:00:27.631Z,93.60
2017-07-23T04:02:55.126Z,93.70
2017-07-23T04:05:22.609Z,93.70
2017-07-23T04:07:50.105Z,93.90
2017-07-23T04:10:17.570Z,93.90
2017-07-23T04:12:45.825Z,93.90
2017-07-23T04:15:13.290Z,93.90
2017-07-23T04:17:40.768Z,93.90
2017-07-23T04:20:08.262Z,93.90
2017-07-23T04:22:35.735Z,94.00
2017-07-23T04:25:03.226Z,94.10
2017-07-23T04:27:30.697Z,94.20
2017-07-23T04:29:58.201Z,94.20
2017-07-23T04:32:25.674Z,94.20
2017-07-23T04:34:53.158Z,94.40
2017-07-23T04:37:20.640Z,94.40
2017-07-23T04:39:48.133Z,94.20
2017-07-23T04:42:15.615Z,94.20
2017-07-23T04:44:43.113Z,94.10
2017-07-23T04:47:10.581Z,94.00
2017-07-23T04:49:38.084Z,93.80
2017-07-23T04:52:05.558Z,93.80
2017-07-23T04:54:33.054Z,93.80
2017-07-23T04:57:00.530Z,93.90
2017-07-23T04:59:28.032Z,93.70
2017-07-23T05:01:55.502Z,93.30
2017-07-23T05:04:22.979Z,93.30
2017-07-23T05:06:50.476Z,92.80
2017-07-23T05:09:17.964Z,92.80
2017-07-23T05:11:45.458Z,92.30
2017-07-23T05:14:12.934Z,92.20
2017-07-23T05:16:40.418Z,92.30
2017-07-23T05:19:08.662Z,91.90
2017-07-23T05:21:36.153Z,92.00
2017-07-23T05:24:03.625Z,91.80
2017-07-23T05:26:31.127Z,91.90
2017-07-23T05:28:58.590Z,91.80
2017-07-23T05:31:26.086Z,91.80
2017-07-23T05:33:53.553Z,91.90
2017-07-23T05:36:21.054Z,92.30
2017-07-23T05:38:49.286Z,92.00
2017-07-23T05:41:16.795Z,91.90
2017-07-23T05:43:44.262Z,91.90
2017-07-23T05:46:11.741Z,91.80
2017-07-23T05:48:39.243Z,91.70
2017-07-23T05:51:06.722Z,90.80
2017-07-23T05:53:34.223Z,90.70
2017-07-23T05:56:01.718Z,90.60
2017-07-23T05:58:29.228Z,90.20
2017-07-23T06:00:56.701Z,88.50
2017-07-23T06:03:24.209Z,86.20
2017-07-23T06:05:51.796Z,85.50
2017-07-23T06:08:19.286Z,86.20
2017-07-23T06:10:46.762Z,86.10
2017-07-23T06:13:14.262Z,86.10
2017-07-23T06:15:41.747Z,84.90
2017-07-23T06:18:09.215Z,84.90
2017-07-23T06:20:36.747Z,84.80
2017-07-23T06:23:04.326Z,84.10
2017-07-23T06:25:31.813Z,85.80
2017-07-23T06:27:59.294Z,85.70
2017-07-23T06:30:26.798Z,85.20
2017-07-23T06:32:54.282Z,81.90
2017-07-23T06:35:21.775Z,80.60
2017-07-23T06:37:49.251Z,79.90
2017-07-23T06:40:17.518Z,80.30
2017-07-23T06:42:44.985Z,80.30
2017-07-23T06:45:12.483Z,79.60
2017-07-23T06:47:39.962Z,75.20
2017-07-23T06:50:07.463Z,72.20
2017-07-23T06:52:34.945Z,72.90
2017-07-23T06:55:02.500Z,73.10
2017-07-23T06:57:30.018Z,73.70
2017-07-23T06:59:57.538Z,73.50
2017-07-23T07:02:25.025Z,71.00
2017-07-23T07:04:53.297Z,70.10
2017-07-23T07:07:20.787Z,70.10
2017-07-23T07:09:48.266Z,69.70
2017-07-23T07:12:15.802Z,71.20
2017-07-23T07:14:43.282Z,70.40
2017-07-23T07:17:10.772Z,72.00
2017-07-23T07:19:38.238Z,70.90
2017-07-23T07:22:05.728Z,70.10
2017-07-23T07:24:33.205Z,70.90
2017-07-23T07:27:00.693Z,71.30
2017-07-23T07:29:28.184Z,72.80
2017-07-23T07:31:55.708Z,74.80
2017-07-23T07:34:23.194Z,74.30
2017-07-23T07:36:50.714Z,74.30
2017-07-23T07:39:18.200Z,75.40
2017-07-23T07:41:45.718Z,76.00
2017-07-23T07:44:13.214Z,75.50
2017-07-23T07:46:40.839Z,74.30
2017-07-23T07:49:08.374Z,74.50
2017-07-23T07:51:35.894Z,75.30
2017-07-23T07:54:03.397Z,75.20
2017-07-23T07:56:30.919Z,75.10
2017-07-23T07:58:58.413Z,74.60
2017-07-23T08:01:25.917Z,75.10
2017-07-23T08:03:53.417Z,74.90
2017-07-23T08:06:20.898Z,74.60
2017-07-23T08:08:48.386Z,74.30
2017-07-23T08:11:15.850Z,73.70
2017-07-23T08:13:43.347Z,73.30
2017-07-23T08:16:10.824Z,73.70
2017-07-23T08:18:38.420Z,72.60
2017-07-23T08:21:05.906Z,73.50
2017-07-23T08:23:33.389Z,71.60
2017-07-23T08:26:00.891Z,71.50
2017-07-23T08:28:28.390Z,68.70
2017-07-23T08:30:55.859Z,68.40
2017-07-23T08:33:23.345Z,67.20
2017-07-23T08:35:50.854Z,66.30
2017-07-23T08:38:18.344Z,65.90
2017-07-23T08:40:45.822Z,65.30
2017-07-23T08:43:13.298Z,65.20
2017-07-23T08:45:40.797Z,63.10
2017-07-23T08:48:08.266Z,61.40
2017-07-23T08:50:35.750Z,58.40
2017-07-23T08:53:03.226Z,57.40
2017-07-23T08:55:30.711Z,55.90
2017-07-23T08:57:58.182Z,53.80
2017-07-23T09:00:25.673Z,51.70
2017-07-23T09:02:53.144Z,48.50
2017-07-23T09:05:20.637Z,48.40
2017-07-23T09:07:48.106Z,48.10
2017-07-23T09:10:16.377Z,49.40
2017-07-23T09:12:43.845Z,49.30
2017-07-23T09:15:11.330Z,50.00
2017-07-23T09:17:38.798Z,48.80
2017-07-23T09:20:06.299Z,48.90
2017-07-23T09:22:34.533Z,48.30
2017-07-23T09:25:02.015Z,48.70
2017-07-23T09:27:29.538Z,49.00
2017-07-23T09:29:57.016Z,50.60
2017-07-23T09:32:25.271Z,53.10
2017-07-23T09:34:52.756Z,53.10
2017-07-23T09:37:20.251Z,53.90
2017-07-23T09:39:47.726Z,55.20
2017-07-23T09:42:15.226Z,55.80
2017-07-23T09:44:42.695Z,54.40
2017-07-23T09:47:10.961Z,49.80
2017-07-23T09:49:38.434Z,49.80
2017-07-23T09:52:05.935Z,49.10
2017-07-23T09:54:34.182Z,51.60
2017-07-23T09:57:01.665Z,51.60
2017-07-23T09:59:29.133Z,52.10
2017-07-23T10:01:56.621Z,51.50
2017-07-23T10:04:24.094Z,52.00
2017-07-23T10:06:51.586Z,50.50
2017-07-23T10:09:19.096Z,49.10
2017-07-23T10:11:47.343Z,46.90
2017-07-23T10:14:14.889Z,46.90
2017-07-23T10:16:42.394Z,46.60
2017-07-23T10:19:09.868Z,46.10
2017-07-23T10:21:37.338Z,46.60
2017-07-23T10:24:04.832Z,47.00
2017-07-23T10:26:32.322Z,46.80
2017-07-23T10:29:00.003Z,46.40
2017-07-23T10:31:27.525Z,46.00
2017-07-23T10:33:55.073Z,44.50
2017-07-23T10:36:23.318Z,44.90
2017-07-23T10:38:50.838Z,44.90
2017-07-23T10:41:19.066Z,43.00
2017-07-23T10:43:46.563Z,42.90
2017-07-23T10:46:14.037Z,43.90
2017-07-23T10:48:41.518Z,44.30
2017-07-23T10:51:08.987Z,43.80
2017-07-23T10:53:36.517Z,43.10
2017-07-23T10:56:04.095Z,43.90
2017-07-23T10:58:31.606Z,43.60
2017-07-23T11:00:59.085Z,43.60
2017-07-23T11:03:26.561Z,44.60
2017-07-23T11:05:54.073Z,45.00
2017-07-23T11:08:21.549Z,46.50
2017-07-23T11:10:49.806Z,46.20
2017-07-23T11:13:17.275Z,46.20
2017-07-23T11:15:44.770Z,42.60
2017-07-23T11:18:12.260Z,42.70
2017-07-23T11:20:39.748Z,44.20
2017-07-23T11:23:09.004Z,44.20
2017-07-23T11:25:36.490Z,44.00
2017-07-23T11:28:03.962Z,44.50
2017-07-23T11:30:31.452Z,42.50
2017-07-23T11:32:58.923Z,42.70
2017-07-23T11:35:26.406Z,42.90
2017-07-23T11:37:57.714Z,42.30
2017-07-23T11:40:26.045Z,39.10
2017-07-23T11:42:53.514Z,39.10
2017-07-23T11:45:20.991Z,39.80
2017-07-23T11:47:48.490Z,40.20
2017-07-23T11:50:15.956Z,40.50
2017-07-23T11:52:43.452Z,42.10
2017-07-23T11:55:10.923Z,43.10
2017-07-23T11:57:38.414Z,43.50
2017-07-23T12:00:05.877Z,42.50
2017-07-23T12:02:33.376Z,41.90
2017-07-23T12:05:01.619Z,43.80
2017-07-23T12:07:29.113Z,43.80
2017-07-23T12:09:56.586Z,44.30
2017-07-23T12:12:24.082Z,43.30
2017-07-23T12:14:51.562Z,42.80
2017-07-23T12:17:19.043Z,43.70
2017-07-23T12:19:47.281Z,42.60
2017-07-23T12:22:14.765Z,42.60
2017-07-23T12:24:42.382Z,43.40
2017-07-23T12:27:09.889Z,44.30
2017-07-23T12:29:37.394Z,45.00
2017-07-23T12:32:04.862Z,45.60
2017-07-23T12:34:32.358Z,45.60
2017-07-23T12:36:59.823Z,45.30
2017-07-23T12:39:27.322Z,43.70
2017-07-23T12:41:54.792Z,41.20
2017-07-23T12:44:22.274Z,40.50
2017-07-23T12:46:49.758Z,40.20
2017-07-23T12:49:17.250Z,41.30
2017-07-23T12:51:45.486Z,41.30
2017-07-23T12:54:12.972Z,41.20
2017-07-23T12:56:40.442Z,41.10
2017-07-23T12:59:07.927Z,40.20
2017-07-23T13:01:36.399Z,41.90
2017-07-23T13:04:03.886Z,41.60
2017-07-23T13:06:31.365Z,41.40
2017-07-23T13:08:58.862Z,41.60
2017-07-23T13:11:26.405Z,41.70
2017-07-23T13:13:53.890Z,41.90
2017-07-23T13:16:21.399Z,41.40
2017-07-23T13:18:48.873Z,40.80
2017-07-23T13:21:16.366Z,39.90
2017-07-23T13:23:44.617Z,41.20
2017-07-23T13:26:12.099Z,41.20
2017-07-23T13:28:39.571Z,41.60
2017-07-23T13:31:07.050Z,42.20
2017-07-23T13:33:34.527Z,42.30
2017-07-23T13:36:02.007Z,42.00
2017-07-23T13:38:29.482Z,42.10
2017-07-23T13:40:56.979Z,41.20
2017-07-23T13:43:25.227Z,41.90
2017-07-23T13:45:52.710Z,41.90
2017-07-23T13:48:20.182Z,41.70
2017-07-23T13:50:47.672Z,42.10
2017-07-23T13:53:15.138Z,42.50
2017-07-23T13:55:42.642Z,43.40
2017-07-23T13:58:10.110Z,44.10
2017-07-23T14:00:37.610Z,44.60
2017-07-23T14:03:05.863Z,44.50
2017-07-23T14:05:33.326Z,44.50
2017-07-23T14:08:00.819Z,44.80
2017-07-23T14:10:28.290Z,44.10
2017-07-23T14:12:55.790Z,42.90
2017-07-23T14:15:23.277Z,42.50
2017-07-23T14:17:51.535Z,41.60
2017-07-23T14:20:19.009Z,41.00
2017-07-23T14:22:46.494Z,41.30
2017-07-23T14:25:13.954Z,41.70
2017-07-23T14:27:41.446Z,42.50
2017-07-23T14:30:08.913Z,44.10
2017-07-23T14:32:36.416Z,44.60
2017-07-23T14:35:04.650Z,44.10
2017-07-23T14:37:32.147Z,44.10
2017-07-23T14:39:59.619Z,43.80
2017-07-23T14:42:27.110Z,42.60
2017-07-23T14:44:54.577Z,42.70
2017-07-23T14:47:22.066Z,42.10
2017-07-23T14:49:49.539Z,42.90
2017-07-23T14:52:17.034Z,44.00
2017-07-23T14:54:44.507Z,43.10
2017-07-23T14:57:11.996Z,43.40
2017-07-23T14:59:40.226Z,42.90
2017-07-23T15:02:07.741Z,42.90
2017-07-23T15:04:35.209Z,43.00
2017-07-23T15:07:02.673Z,42.80
2017-07-23T15:09:30.157Z,42.50
2017-07-23T15:11:57.622Z,42.50
2017-07-23T15:14:25.162Z,42.70
2017-07-23T15:16:52.625Z,43.20
2017-07-23T15:19:20.878Z,43.70
2017-07-23T15:21:48.352Z,43.70
2017-07-23T15:24:15.830Z,43.40
2017-07-23T15:26:43.305Z,42.80
2017-07-23T15:29:10.790Z,42.90
2017-07-23T15:31:38.269Z,43.60
2017-07-23T15:34:05.750Z,44.90
2017-07-23T15:36:33.221Z,46.00
2017-07-23T15:39:00.710Z,46.80
2017-07-23T15:41:28.184Z,47.20
2017-07-23T15:43:55.671Z,47.60
2017-07-23T15:46:23.137Z,48.00
2017-07-23T15:48:51.422Z,48.30
2017-07-23T15:51:19.670Z,47.60
2017-07-23T15:53:47.141Z,47.60
2017-07-23T15:56:14.629Z,47.60
2017-07-23T15:58:42.122Z,48.10
2017-07-23T16:01:09.614Z,47.90
2017-07-23T16:03:37.084Z,47.70
2017-07-23T16:06:04.625Z,47.90
2017-07-23T16:08:32.145Z,48.10
2017-07-23T16:10:59.648Z,48.00
2017-07-23T16:13:27.122Z,47.90
2017-07-23T16:15:54.621Z,47.70
2017-07-23T16:18:22.099Z,47.50
2017-07-23T16:20:49.591Z,47.60
2017-07-23T16:23:17.131Z,47.50
2017-07-23T16:25:44.613Z,47.10
2017-07-23T16:28:12.084Z,47.30
2017-07-23T16:30:39.574Z,46.70
2017-07-23T16:33:07.051Z,46.80
2017-07-23T16:35:34.558Z,46.40
2017-07-23T16:38:02.027Z,46.70
2017-07-23T16:40:29.505Z,46.40
2017-07-23T16:42:57.001Z,46.30
2017-07-23T16:45:24.469Z,46.40
2017-07-23T16:47:51.961Z,46.30
2017-07-23T16:50:20.209Z,47.10
2017-07-23T16:52:47.710Z,46.60
2017-07-23T16:55:15.202Z,46.20
2017-07-23T16:57:43.478Z,45.60
2017-07-23T17:00:10.951Z,45.60
2017-07-23T17:02:38.454Z,45.00
2017-07-23T17:05:06.685Z,45.70
2017-07-23T17:07:34.178Z,45.60
2017-07-23T17:10:01.653Z,45.50
2017-07-23T17:12:29.152Z,46.80
2017-07-23T17:14:56.709Z,46.60
2017-07-23T17:17:24.209Z,46.70
2017-07-23T17:19:51.683Z,46.60
2017-07-23T17:22:19.566Z,46.00
2017-07-23T17:24:47.135Z,46.40
2017-07-23T17:27:14.626Z,46.20
2017-07-23T17:29:42.265Z,45.90
2017-07-23T17:32:10.603Z,45.90
2017-07-23T17:34:38.130Z,46.00
2017-07-23T17:37:05.607Z,46.20
2017-07-23T17:39:33.110Z,46.50
2017-07-23T17:42:00.595Z,46.60
2017-07-23T17:44:28.106Z,47.00
2017-07-23T17:46:55.593Z,46.80
2017-07-23T17:49:23.099Z,47.20
2017-07-23T17:51:50.606Z,47.70
2017-07-23T17:54:18.105Z,47.50
2017-07-23T17:56:45.601Z,47.80
2017-07-23T17:59:13.116Z,48.10
2017-07-23T18:01:40.615Z,47.90
2017-07-23T18:04:08.108Z,47.90
2017-07-23T18:06:35.729Z,47.90
2017-07-23T18:09:03.428Z,48.30
2017-07-23T18:11:30.922Z,48.40
2017-07-23T18:13:58.408Z,49.20
2017-07-23T18:16:25.977Z,48.00
2017-07-23T18:18:53.479Z,48.50
2017-07-23T18:21:20.977Z,47.80
2017-07-23T18:23:48.468Z,47.80
2017-07-23T18:26:16.015Z,47.70
2017-07-23T18:28:43.511Z,48.60
2017-07-23T18:31:11.021Z,48.00
2017-07-23T18:33:38.543Z,48.60
2017-07-23T18:36:06.064Z,48.60
2017-07-23T18:38:33.562Z,48.20
2017-07-23T18:41:01.086Z,48.60
2017-07-23T18:43:28.577Z,48.50
2017-07-23T18:45:56.066Z,48.90
2017-07-23T18:48:23.553Z,49.30
2017-07-23T18:50:51.062Z,49.70
2017-07-23T18:53:18.535Z,49.90
2017-07-23T18:55:46.022Z,49.80
2017-07-23T18:58:13.507Z,49.30
2017-07-23T19:00:40.995Z,49.40
2017-07-23T19:03:08.470Z,49.90
2017-07-23T19:05:35.995Z,50.30
2017-07-23T19:08:03.489Z,49.80
2017-07-23T19:10:31.005Z,50.20
2017-07-23T19:12:58.506Z,50.40
2017-07-23T19:15:25.998Z,50.70
2017-07-23T19:17:53.545Z,50.60
2017-07-23T19:20:21.046Z,50.50
2017-07-23T19:22:48.550Z,51.00
2017-07-23T19:25:16.043Z,51.40
2017-07-23T19:27:43.547Z,51.20
2017-07-23T19:30:11.027Z,51.70
2017-07-23T19:32:38.538Z,51.90
2017-07-23T19:35:06.021Z,51.70
2017-07-23T19:37:33.519Z,51.40
2017-07-23T19:40:01.017Z,52.00
2017-07-23T19:42:28.531Z,51.20
2017-07-23T19:44:56.020Z,51.10
2017-07-23T19:47:23.563Z,51.60
2017-07-23T19:49:51.056Z,51.60
2017-07-23T19:52:18.542Z,51.40
2017-07-23T19:54:46.065Z,51.60
2017-07-23T19:57:13.555Z,51.60
2017-07-23T19:59:41.041Z,51.60
2017-07-23T20:02:08.525Z,51.60
2017-07-23T20:04:36.015Z,51.70
2017-07-23T20:07:03.487Z,52.10
2017-07-23T20:09:30.976Z,51.90
2017-07-23T20:11:59.225Z,51.90
2017-07-23T20:14:26.721Z,51.90
2017-07-23T20:16:54.193Z,52.20
2017-07-23T20:19:21.735Z,52.40
2017-07-23T20:21:49.322Z,52.00
2017-07-23T20:24:17.025Z,52.20
2017-07-23T20:26:44.710Z,52.20
2017-07-23T20:29:12.381Z,52.50
2017-07-23T20:31:40.152Z,52.70
2017-07-23T20:34:07.741Z,52.50
2017-07-23T20:36:35.527Z,52.70
2017-07-23T20:39:03.403Z,52.90
2017-07-23T20:41:31.102Z,53.10
2017-07-23T20:43:58.890Z,52.40
2017-07-23T20:46:26.874Z,52.40
2017-07-23T20:48:54.637Z,52.60
2017-07-23T20:51:22.350Z,52.60
2017-07-23T20:53:50.113Z,52.60
2017-07-23T20:56:17.910Z,52.70
2017-07-23T20:58:45.778Z,52.90
2017-07-23T21:01:13.451Z,53.20
2017-07-23T21:03:41.121Z,53.00
2017-07-23T21:06:08.712Z,52.80
2017-07-23T21:08:36.392Z,53.10
2017-07-23T21:11:04.277Z,53.40
2017-07-23T21:13:32.066Z,53.70
2017-07-23T21:15:59.946Z,54.20
2017-07-23T21:18:27.734Z,54.50
2017-07-23T21:20:55.417Z,54.60
2017-07-23T21:23:22.984Z,55.00
2017-07-23T21:25:50.482Z,55.20
2017-07-23T21:28:18.042Z,55.20
2017-07-23T21:30:45.548Z,55.20
2017-07-23T21:33:13.066Z,55.30
2017-07-23T21:35:40.567Z,55.10
2017-07-23T21:38:08.076Z,54.90
2017-07-23T21:40:35.581Z,54.80
2017-07-23T21:43:03.090Z,54.60
2017-07-23T21:45:30.711Z,55.00
2017-07-23T21:47:58.223Z,55.20
2017-07-23T21:50:25.807Z,55.30
2017-07-23T21:52:53.550Z,55.50
2017-07-23T21:55:21.149Z,55.30
2017-07-23T21:57:48.743Z,55.20
2017-07-23T22:00:16.270Z,55.30
2017-07-23T22:02:43.766Z,55.70
2017-07-23T22:05:11.274Z,55.00
2017-07-23T22:07:38.762Z,55.50
2017-07-23T22:10:06.286Z,55.30
2017-07-23T22:12:33.782Z,55.90
2017-07-23T22:15:01.289Z,55.60
2017-07-23T22:17:28.775Z,55.40
2017-07-23T22:19:56.292Z,55.60
2017-07-23T22:22:23.781Z,55.90
2017-07-23T22:24:51.308Z,55.70
2017-07-23T22:27:18.782Z,56.20
2017-07-23T22:29:47.022Z,56.60
2017-07-23T22:32:14.513Z,56.30
2017-07-23T22:34:41.990Z,56.60
2017-07-23T22:37:09.475Z,56.50
